Terminal Aerodrome Forecast
Issued by NWS El Paso, TX

Home | Current Version | Previous Version | Text Only | Print | Product List | Glossary On
Versions: 1 2 3 4 5 6 7 8 9 10 11 12 13
000
FTUS44 KEPZ 071133
TAFELP
TAF
KELP 071133Z 0712/0812 25007KT P6SM SCT150 BKN250
     FM071800 27009KT P6SM VCSH BKN100 OVC200
     FM080600 07012KT P6SM FEW150 BKN250=

USA.gov is the U.S. government's official web portal to all federal, state and local government web resources and services.